EDVK

Kassel-Calden Airport

Kassel, Germany
METAR EDVK 230150Z 35004KT 7000 FEW035 OVC074 13/13 Q1016
Observed Flight Rules
May-23 @ 01:50 UTC (an hour ago) Marginal Visual Flight Rules
Wind Visibility Clouds
350° at 4 knots 7,001 meters
  • Few at 3,500' AGL
  • Overcast at 7,400' AGL
Temperatures Readings
Current 13°C / 55°F
Dewpoint 13°C / 55°F
Humidity 100%
Altimeter 30" Hg
Pressure 1016 hPa
Elevation 285
METAR EDVK 230150Z 35004KT 7000 FEW035 OVC074 13/13 Q1016
Observed Flight Rules
May-23 @ 01:50 UTC
(an hour ago)
MVFR
Wind Visibility
350° at 4 knots 7,001 meters
Clouds
  • Few at 3,500' AGL
  • Overcast at 7,400' AGL
Temperature Dewpoint
13°C / 55°F 13°C / 55°F
Humidity Altimeter Pressure
100% 30" Hg 1016 hPa